createdAt,value
2022-08-12T00:00:49.366Z,2.15
2022-08-12T00:03:34.941Z,2.20
2022-08-12T00:06:22.017Z,2.10
2022-08-12T00:09:07.343Z,2.25
2022-08-12T00:11:52.722Z,2.45
2022-08-12T00:14:38.249Z,2.03
2022-08-12T00:17:25.031Z,2.40
2022-08-12T00:20:10.834Z,2.40
2022-08-12T00:22:59.161Z,2.45
2022-08-12T00:26:20.957Z,2.83
2022-08-12T00:29:04.926Z,2.65
2022-08-12T00:31:50.478Z,2.25
2022-08-12T00:34:35.900Z,2.40
2022-08-12T00:37:21.250Z,2.40
2022-08-12T00:40:11.679Z,2.72
2022-08-12T00:42:41.357Z,2.22
2022-08-12T00:45:09.240Z,2.60
2022-08-12T00:47:37.584Z,2.50
2022-08-12T00:50:06.443Z,2.40
2022-08-12T00:52:35.096Z,2.40
2022-08-12T00:55:04.507Z,2.45
2022-08-12T00:57:37.446Z,2.27
2022-08-12T01:00:10.700Z,3.08
2022-08-12T01:02:45.702Z,2.35
2022-08-12T01:05:37.736Z,2.58
2022-08-12T01:08:23.037Z,2.42
2022-08-12T01:11:09.341Z,2.97
2022-08-12T01:13:46.178Z,2.67
2022-08-12T01:16:22.526Z,2.63
2022-08-12T01:18:51.734Z,2.60
2022-08-12T01:21:27.443Z,2.58
2022-08-12T01:24:39.197Z,2.60
2022-08-12T01:27:09.906Z,3.25
2022-08-12T01:29:43.876Z,2.13
2022-08-12T01:32:14.284Z,2.58
2022-08-12T01:34:51.205Z,2.70
2022-08-12T01:37:22.256Z,2.88
2022-08-12T01:40:32.068Z,2.47
2022-08-12T01:42:50.520Z,2.60
2022-08-12T01:45:22.861Z,2.83
2022-08-12T01:48:17.278Z,2.85
2022-08-12T01:51:06.581Z,2.90
2022-08-12T01:53:51.074Z,2.50
2022-08-12T01:56:21.910Z,3.40
2022-08-12T01:59:12.425Z,2.67
2022-08-12T02:01:40.236Z,2.70
2022-08-12T02:04:51.412Z,3.55
2022-08-12T02:08:07.581Z,2.33
2022-08-12T02:11:16.315Z,2.47
2022-08-12T02:14:06.804Z,2.53
2022-08-12T02:16:49.322Z,2.67
2022-08-12T02:19:23.126Z,2.90
2022-08-12T02:21:58.801Z,2.33
2022-08-12T02:24:31.250Z,2.95
2022-08-12T02:26:59.553Z,2.80
2022-08-12T02:29:26.820Z,2.70
2022-08-12T02:31:54.594Z,2.33
2022-08-12T02:34:23.036Z,2.75
2022-08-12T02:36:53.780Z,2.80
2022-08-12T02:39:24.183Z,2.58
2022-08-12T02:41:54.585Z,2.97
2022-08-12T02:44:23.829Z,3.13
2022-08-12T02:46:55.056Z,2.83
2022-08-12T02:49:34.736Z,3.22
2022-08-12T02:52:02.543Z,3.10
2022-08-12T02:54:29.461Z,3.58
2022-08-12T02:56:56.432Z,2.92
2022-08-12T02:59:26.553Z,3.13
2022-08-12T03:04:47.706Z,3.20
2022-08-12T03:07:42.785Z,2.70
2022-08-12T03:10:36.543Z,3.10
2022-08-12T03:13:06.992Z,3.05
2022-08-12T03:15:35.552Z,3.72
2022-08-12T03:18:24.733Z,2.90
2022-08-12T03:20:56.298Z,3.25
2022-08-12T03:23:28.893Z,2.80
2022-08-12T03:26:02.826Z,2.80
2022-08-12T03:28:50.248Z,2.90
2022-08-12T03:31:32.286Z,3.03
2022-08-12T03:34:04.885Z,3.10
2022-08-12T03:36:35.055Z,3.17
2022-08-12T03:39:18.732Z,3.00
2022-08-12T03:42:03.149Z,3.22
2022-08-12T03:45:17.007Z,3.22
2022-08-12T03:48:08.165Z,3.67
2022-08-12T03:50:55.623Z,3.30
2022-08-12T03:53:47.206Z,3.63
2022-08-12T03:56:32.684Z,3.08
2022-08-12T03:59:19.758Z,3.17
2022-08-12T04:01:57.125Z,3.50
2022-08-12T04:04:35.140Z,3.50
2022-08-12T04:07:07.933Z,3.40
2022-08-12T04:09:37.590Z,3.90
2022-08-12T04:12:37.478Z,3.50
2022-08-12T04:15:05.018Z,3.38
2022-08-12T04:17:33.044Z,3.83
2022-08-12T04:19:59.990Z,3.72
2022-08-12T04:22:30.543Z,4.03
2022-08-12T04:25:02.496Z,3.53
2022-08-12T04:27:31.265Z,3.50
2022-08-12T04:30:30.778Z,4.22
2022-08-12T04:32:45.900Z,3.67
2022-08-12T04:35:13.027Z,3.65
2022-08-12T04:37:59.194Z,4.07
2022-08-12T04:40:29.015Z,3.63
2022-08-12T04:42:56.229Z,3.90
2022-08-12T04:45:23.035Z,3.90
2022-08-12T04:47:49.895Z,3.95
2022-08-12T04:50:34.803Z,4.20
2022-08-12T04:53:05.947Z,3.83
2022-08-12T04:55:34.595Z,3.95
2022-08-12T04:58:01.435Z,3.95
2022-08-12T05:00:28.225Z,4.30
2022-08-12T05:02:54.994Z,4.10
2022-08-12T05:05:23.266Z,3.80
2022-08-12T05:07:54.004Z,4.00
2022-08-12T05:10:33.398Z,3.88
2022-08-12T05:13:07.994Z,4.05
2022-08-12T05:16:04.716Z,4.60
2022-08-12T05:18:29.036Z,3.85
2022-08-12T05:20:56.476Z,3.45
2022-08-12T05:23:23.323Z,4.28
2022-08-12T05:25:56.228Z,3.90
2022-08-12T05:28:24.468Z,3.72
2022-08-12T05:30:51.799Z,3.97
2022-08-12T05:33:18.573Z,4.05
2022-08-12T05:35:47.613Z,4.65
2022-08-12T05:38:35.723Z,4.88
2022-08-12T05:41:05.080Z,4.13
2022-08-12T05:43:34.454Z,4.10
2022-08-12T05:46:01.388Z,4.75
2022-08-12T05:48:28.435Z,3.60
2022-08-12T05:50:56.728Z,4.28
2022-08-12T05:53:24.163Z,4.40
2022-08-12T05:55:53.291Z,4.38
2022-08-12T05:58:21.151Z,4.30
2022-08-12T06:00:47.914Z,4.28
2022-08-12T06:03:17.335Z,4.18
2022-08-12T06:05:55.715Z,4.15
2022-08-12T06:08:23.620Z,4.35
2022-08-12T06:10:50.674Z,4.35
2022-08-12T06:13:28.666Z,3.90
2022-08-12T06:16:07.306Z,3.90
2022-08-12T06:18:34.624Z,4.20
2022-08-12T06:21:02.181Z,4.72
2022-08-12T06:23:30.157Z,4.30
2022-08-12T06:25:57.855Z,4.53
2022-08-12T06:28:25.265Z,4.65
2022-08-12T06:31:15.240Z,4.15
2022-08-12T06:34:00.624Z,5.00
2022-08-12T06:36:33.491Z,4.25
2022-08-12T06:39:00.979Z,4.40
2022-08-12T06:42:27.729Z,4.63
2022-08-12T06:44:33.327Z,4.70
2022-08-12T06:47:00.469Z,4.57
2022-08-12T06:49:28.284Z,4.47
2022-08-12T06:51:56.564Z,3.78
2022-08-12T06:54:30.787Z,4.20
2022-08-12T06:57:04.221Z,4.55
2022-08-12T06:59:32.280Z,4.70
2022-08-12T07:01:59.108Z,4.30
2022-08-12T07:04:41.275Z,4.75
2022-08-12T07:07:09.582Z,4.60
2022-08-12T07:10:03.964Z,4.30
2022-08-12T07:12:27.691Z,4.28
2022-08-12T07:14:58.009Z,4.05
2022-08-12T07:17:25.662Z,4.72
2022-08-12T07:19:53.573Z,4.55
2022-08-12T07:22:23.160Z,4.35
2022-08-12T07:25:10.020Z,5.07
2022-08-12T07:27:42.291Z,4.60
2022-08-12T07:30:09.921Z,3.92
2022-08-12T07:32:36.943Z,3.72
2022-08-12T07:35:04.629Z,4.60
2022-08-12T07:37:31.422Z,4.10
2022-08-12T07:39:59.502Z,4.63
2022-08-12T07:42:28.327Z,4.03
2022-08-12T07:44:56.013Z,4.15
2022-08-12T07:47:23.133Z,3.83
2022-08-12T07:50:04.695Z,4.03
2022-08-12T07:52:42.503Z,3.80
2022-08-12T07:55:10.692Z,3.80
2022-08-12T07:57:54.098Z,4.15
2022-08-12T08:00:21.351Z,3.85
2022-08-12T08:02:49.281Z,3.90
2022-08-12T08:05:16.265Z,3.78
2022-08-12T08:07:42.983Z,3.42
2022-08-12T08:10:11.463Z,3.88
2022-08-12T08:12:53.493Z,3.70
2022-08-12T08:15:33.685Z,3.50
2022-08-12T08:18:25.834Z,4.00
2022-08-12T08:20:54.407Z,3.58
2022-08-12T08:23:21.318Z,3.40
2022-08-12T08:25:50.032Z,3.40
2022-08-12T08:28:17.179Z,3.45
2022-08-12T08:30:46.025Z,3.67
2022-08-12T08:33:22.570Z,3.53
2022-08-12T08:36:02.174Z,3.67
2022-08-12T08:38:32.969Z,3.80
2022-08-12T08:42:14.109Z,3.38
2022-08-12T08:44:11.055Z,3.45
2022-08-12T08:46:43.640Z,3.70
2022-08-12T08:49:11.499Z,3.45
2022-08-12T08:51:39.063Z,3.50
2022-08-12T08:54:11.492Z,3.63
2022-08-12T08:56:45.431Z,3.53
2022-08-12T08:59:13.805Z,3.50
2022-08-12T09:01:41.319Z,3.40
2022-08-12T09:05:09.237Z,3.60
2022-08-12T09:07:00.179Z,3.20
2022-08-12T09:09:34.233Z,3.75
2022-08-12T09:12:32.495Z,3.00
2022-08-12T09:15:16.925Z,3.57
2022-08-12T09:17:55.738Z,3.65
2022-08-12T09:20:30.728Z,3.53
2022-08-12T09:22:58.934Z,3.42
2022-08-12T09:25:33.465Z,3.80
2022-08-12T09:28:31.374Z,3.90
2022-08-12T09:30:52.440Z,3.55
2022-08-12T09:34:27.607Z,3.40
2022-08-12T09:36:06.083Z,2.83
2022-08-12T09:38:35.419Z,3.05
2022-08-12T09:42:33.119Z,2.95
2022-08-12T09:44:38.486Z,3.03
2022-08-12T09:46:56.118Z,3.05
2022-08-12T09:49:24.541Z,3.00
2022-08-12T09:51:55.212Z,3.03
2022-08-12T09:54:34.050Z,3.22
2022-08-12T10:00:14.576Z,2.92
2022-08-12T10:03:01.341Z,3.33
2022-08-12T10:06:27.665Z,3.33
2022-08-12T10:08:21.956Z,2.90
2022-08-12T10:11:09.198Z,2.78
2022-08-12T10:13:48.640Z,3.00
2022-08-12T10:16:22.446Z,3.10
2022-08-12T10:18:51.712Z,3.20
2022-08-12T10:23:51.663Z,2.72
2022-08-12T10:26:43.118Z,3.00
2022-08-12T10:30:37.889Z,3.00
2022-08-12T10:32:44.905Z,2.83
2022-08-12T10:35:10.503Z,2.90
2022-08-12T10:38:32.451Z,2.70
2022-08-12T10:40:31.490Z,2.80
2022-08-12T10:43:17.937Z,3.00
2022-08-12T10:45:47.198Z,2.65
2022-08-12T10:48:21.443Z,2.83
2022-08-12T10:51:01.838Z,2.85
2022-08-12T10:53:43.669Z,2.83
2022-08-12T10:56:14.235Z,2.83
2022-08-12T10:58:40.949Z,2.65
2022-08-12T11:01:25.912Z,2.80
2022-08-12T11:04:23.648Z,2.80
2022-08-12T11:07:06.015Z,3.10
2022-08-12T11:10:00.325Z,3.38
2022-08-12T11:12:58.169Z,2.63
2022-08-12T11:15:19.145Z,2.80
2022-08-12T11:17:53.805Z,3.00
2022-08-12T11:20:24.057Z,2.80
2022-08-12T11:23:03.809Z,3.00
2022-08-12T11:25:56.725Z,3.15
2022-08-12T11:28:33.201Z,2.90
2022-08-12T11:31:01.949Z,2.75
2022-08-12T11:34:06.825Z,2.95
2022-08-12T11:36:15.884Z,3.17
2022-08-12T11:38:42.976Z,2.92
2022-08-12T11:41:30.879Z,3.10
2022-08-12T11:44:36.145Z,3.00
2022-08-12T11:46:51.223Z,2.78
2022-08-12T11:49:20.555Z,2.67
2022-08-12T11:51:58.775Z,2.58
2022-08-12T11:54:25.522Z,3.10
2022-08-12T11:56:59.402Z,2.90
2022-08-12T12:02:19.290Z,2.80
2022-08-12T12:04:52.461Z,2.60
2022-08-12T12:07:22.425Z,2.80
2022-08-12T12:09:52.374Z,2.60
2022-08-12T12:12:23.718Z,2.80
2022-08-12T12:14:54.266Z,2.90
2022-08-12T12:17:21.983Z,2.53
2022-08-12T12:19:48.932Z,2.50
2022-08-12T12:22:23.051Z,2.40
2022-08-12T12:24:51.138Z,2.50
2022-08-12T12:27:35.742Z,2.60
2022-08-12T12:30:19.045Z,2.85
2022-08-12T12:32:55.255Z,2.70
2022-08-12T12:36:06.420Z,2.60
2022-08-12T12:38:12.285Z,2.80
2022-08-12T12:40:41.690Z,2.88
2022-08-12T12:43:12.014Z,2.78
2022-08-12T12:45:39.585Z,2.57
2022-08-12T12:48:19.259Z,2.75
2022-08-12T12:51:09.289Z,2.30
2022-08-12T12:54:08.128Z,2.42
2022-08-12T12:56:34.087Z,2.28
2022-08-12T12:59:03.463Z,2.80
2022-08-12T13:01:31.058Z,2.40
2022-08-12T13:04:01.776Z,2.53
2022-08-12T13:06:30.793Z,2.47
2022-08-12T13:09:03.309Z,2.50
2022-08-12T13:11:42.261Z,2.30
2022-08-12T13:14:28.185Z,2.20
2022-08-12T13:16:57.516Z,2.55
2022-08-12T13:19:36.681Z,2.60
2022-08-12T13:22:20.385Z,2.53
2022-08-12T13:24:54.619Z,2.38
2022-08-12T13:27:21.530Z,2.38
2022-08-12T13:29:48.894Z,2.30
2022-08-12T13:32:28.304Z,2.92
2022-08-12T13:35:04.209Z,2.33
2022-08-12T13:37:43.878Z,2.10
2022-08-12T13:40:18.410Z,2.35
2022-08-12T13:42:51.004Z,2.72
2022-08-12T13:45:18.020Z,2.60
2022-08-12T13:48:04.133Z,2.53
2022-08-12T13:50:40.054Z,2.30
2022-08-12T13:53:24.691Z,2.17
2022-08-12T13:55:59.748Z,2.80
2022-08-12T13:58:30.424Z,2.33
2022-08-12T14:00:58.666Z,2.47
2022-08-12T14:03:27.988Z,2.50
2022-08-12T14:05:59.285Z,2.58
2022-08-12T14:08:34.242Z,2.40
2022-08-12T14:11:02.200Z,2.38
2022-08-12T14:14:06.013Z,2.22
2022-08-12T14:16:47.032Z,2.05
2022-08-12T14:19:10.661Z,2.22
2022-08-12T14:21:59.116Z,2.40
2022-08-12T14:24:27.353Z,2.22
2022-08-12T14:26:58.693Z,2.50
2022-08-12T14:29:38.179Z,2.50
2022-08-12T14:32:17.672Z,2.45
2022-08-12T14:34:46.817Z,2.30
2022-08-12T14:37:56.407Z,2.13
2022-08-12T14:40:01.142Z,2.30
2022-08-12T14:42:28.346Z,2.65
2022-08-12T14:45:01.127Z,2.45
2022-08-12T14:47:35.508Z,2.53
2022-08-12T14:50:58.535Z,2.63
2022-08-12T14:58:28.360Z,2.50
2022-08-12T15:01:19.884Z,2.53
2022-08-12T15:03:56.874Z,2.30
2022-08-12T15:06:43.738Z,2.80
2022-08-12T15:09:16.002Z,2.65
2022-08-12T15:11:55.652Z,3.40
2022-08-12T15:14:30.275Z,3.40
2022-08-12T15:17:00.545Z,2.78
2022-08-12T15:20:28.700Z,2.60
2022-08-12T15:22:39.582Z,2.50
2022-08-12T15:25:07.387Z,2.80
2022-08-12T15:28:05.780Z,2.50
2022-08-12T15:30:31.361Z,2.60
2022-08-12T15:32:58.958Z,2.40
2022-08-12T15:35:38.250Z,2.50
2022-08-12T15:38:19.678Z,2.45
2022-08-12T15:40:55.089Z,2.58
2022-08-12T15:43:50.914Z,2.67
2022-08-12T15:46:15.540Z,2.47
2022-08-12T15:48:44.186Z,2.63
2022-08-12T15:51:58.448Z,2.78
2022-08-12T15:54:33.352Z,2.78
2022-08-12T15:57:07.673Z,2.95
2022-08-12T16:00:00.304Z,2.67
2022-08-12T16:02:22.903Z,2.90
2022-08-12T16:04:53.530Z,2.53
2022-08-12T16:07:29.627Z,2.60
2022-08-12T16:10:06.378Z,2.60
2022-08-12T16:12:43.314Z,2.83
2022-08-12T16:15:26.238Z,2.72
2022-08-12T16:18:18.432Z,2.70
2022-08-12T16:20:42.518Z,2.83
2022-08-12T16:23:36.423Z,2.72
2022-08-12T16:26:06.109Z,2.50
2022-08-12T16:28:41.085Z,2.47
2022-08-12T16:31:13.340Z,2.88
2022-08-12T16:33:59.346Z,2.80
2022-08-12T16:36:28.641Z,2.60
2022-08-12T16:38:55.464Z,2.83
2022-08-12T16:41:22.792Z,2.95
2022-08-12T16:43:50.476Z,2.65
2022-08-12T16:46:31.687Z,2.70
2022-08-12T16:49:04.129Z,2.70
2022-08-12T16:51:40.217Z,2.40
2022-08-12T16:54:12.783Z,2.35
2022-08-12T16:56:55.176Z,2.00
2022-08-12T16:59:30.862Z,2.78
2022-08-12T17:01:58.545Z,2.63
2022-08-12T17:04:25.480Z,2.60
2022-08-12T17:06:52.480Z,2.50
2022-08-12T17:09:19.457Z,2.50
2022-08-12T17:11:49.701Z,2.60
2022-08-12T17:14:16.983Z,2.70
2022-08-12T17:16:45.630Z,2.33
2022-08-12T17:19:13.925Z,2.63
2022-08-12T17:22:01.715Z,2.33
2022-08-12T17:24:32.401Z,2.53
2022-08-12T17:27:00.818Z,2.30
2022-08-12T17:30:00.215Z,2.35
2022-08-12T17:32:14.544Z,2.30
2022-08-12T17:35:00.243Z,2.50
2022-08-12T17:37:27.592Z,2.42
2022-08-12T17:40:15.483Z,2.42
2022-08-12T17:42:43.465Z,2.30
2022-08-12T17:45:17.334Z,2.20
2022-08-12T17:48:01.869Z,2.40
2022-08-12T17:50:35.748Z,2.38
2022-08-12T17:53:03.928Z,2.35
2022-08-12T17:55:43.152Z,2.08
2022-08-12T17:58:14.612Z,2.30
2022-08-12T18:00:44.127Z,2.30
2022-08-12T18:04:05.819Z,2.30
2022-08-12T18:06:08.522Z,2.10
2022-08-12T18:08:53.478Z,2.10
2022-08-12T18:12:04.723Z,2.28
2022-08-12T18:14:28.105Z,2.33
2022-08-12T18:16:57.634Z,3.75
2022-08-12T18:19:34.079Z,3.40
2022-08-12T18:22:17.583Z,2.53
2022-08-12T18:25:00.788Z,2.70
2022-08-12T18:27:44.032Z,2.90
2022-08-12T18:30:13.433Z,3.58
2022-08-12T18:32:58.448Z,3.28
2022-08-12T18:35:29.957Z,3.58
2022-08-12T18:38:16.634Z,2.83
2022-08-12T18:41:04.371Z,3.40
2022-08-12T18:43:38.860Z,2.85
2022-08-12T18:48:57.565Z,2.60
2022-08-12T18:51:55.635Z,2.20
2022-08-12T18:54:41.490Z,2.60
2022-08-12T18:57:19.441Z,2.38
2022-08-12T19:00:06.313Z,2.30
2022-08-12T19:02:40.511Z,2.20
2022-08-12T19:05:10.902Z,2.53
2022-08-12T19:07:49.890Z,2.28
2022-08-12T19:10:29.450Z,2.38
2022-08-12T19:13:23.235Z,2.20
2022-08-12T19:15:53.352Z,3.40
2022-08-12T19:18:22.262Z,2.90
2022-08-12T19:20:50.637Z,2.53
2022-08-12T19:23:20.921Z,2.60
2022-08-12T19:26:00.714Z,2.60
2022-08-12T19:28:35.630Z,2.70
2022-08-12T19:31:55.438Z,2.65
2022-08-12T19:38:02.403Z,2.75
2022-08-12T19:40:32.245Z,2.67
2022-08-12T19:43:19.167Z,2.80
2022-08-12T19:45:51.272Z,2.97
2022-08-12T19:48:20.530Z,2.95
2022-08-12T19:50:52.312Z,2.60
2022-08-12T19:53:22.862Z,2.80
2022-08-12T19:55:55.367Z,2.53
2022-08-12T19:58:23.713Z,2.70
2022-08-12T20:00:54.745Z,2.88
2022-08-12T20:03:38.630Z,2.72
2022-08-12T20:06:11.172Z,3.50
2022-08-12T20:08:47.863Z,3.20
2022-08-12T20:12:14.109Z,3.25
2022-08-12T20:14:04.806Z,2.70
2022-08-12T20:16:52.250Z,3.05
2022-08-12T20:19:23.222Z,3.45
2022-08-12T20:21:50.495Z,3.10
2022-08-12T20:24:19.148Z,3.10
2022-08-12T20:26:46.857Z,3.38
2022-08-12T20:29:16.577Z,3.13
2022-08-12T20:31:44.050Z,3.10
2022-08-12T20:34:12.093Z,2.85
2022-08-12T20:36:44.348Z,2.60
2022-08-12T20:39:37.077Z,3.00
2022-08-12T20:42:07.077Z,3.42
2022-08-12T20:44:39.806Z,2.88
2022-08-12T20:47:17.804Z,2.95
2022-08-12T20:52:29.022Z,3.50
2022-08-12T20:54:57.800Z,3.40
2022-08-12T20:57:37.987Z,3.35
2022-08-12T21:00:16.624Z,3.60
2022-08-12T21:02:49.840Z,3.28
2022-08-12T21:06:09.375Z,3.17
2022-08-12T21:08:26.365Z,3.47
2022-08-12T21:10:55.415Z,3.10
2022-08-12T21:13:29.454Z,3.60
2022-08-12T21:16:06.178Z,3.28
2022-08-12T21:18:37.543Z,3.00
2022-08-12T21:21:06.779Z,3.20
2022-08-12T21:23:51.061Z,2.80
2022-08-12T21:26:18.112Z,3.20
2022-08-12T21:28:58.181Z,3.97
2022-08-12T21:32:36.603Z,3.10
2022-08-12T21:34:17.793Z,3.25
2022-08-12T21:36:49.404Z,3.10
2022-08-12T21:39:21.289Z,3.08
2022-08-12T21:41:53.555Z,3.42
2022-08-12T21:44:32.484Z,3.15
2022-08-12T21:47:20.776Z,2.95
2022-08-12T21:50:04.198Z,3.58
2022-08-12T21:52:36.259Z,3.30
2022-08-12T21:55:18.784Z,3.40
2022-08-12T21:57:54.282Z,2.97
2022-08-12T22:00:33.031Z,3.38
2022-08-12T22:04:01.981Z,3.05
2022-08-12T22:06:26.269Z,2.90
2022-08-12T22:09:08.807Z,3.00
2022-08-12T22:11:44.004Z,3.13
2022-08-12T22:14:21.289Z,3.20
2022-08-12T22:16:50.733Z,3.35
2022-08-12T22:19:19.520Z,3.47
2022-08-12T22:21:53.166Z,3.15
2022-08-12T22:24:26.275Z,3.22
2022-08-12T22:26:55.401Z,3.13
2022-08-12T22:29:40.650Z,3.17
2022-08-12T22:32:11.470Z,3.40
2022-08-12T22:34:39.664Z,3.10
2022-08-12T22:37:11.507Z,3.35
2022-08-12T22:39:49.353Z,2.97
2022-08-12T22:42:35.715Z,3.40
2022-08-12T22:45:23.264Z,3.28
2022-08-12T22:47:55.875Z,3.22
2022-08-12T22:50:28.723Z,2.80
2022-08-12T22:53:14.910Z,3.15
2022-08-12T22:56:00.565Z,3.00
2022-08-12T22:58:31.642Z,3.28
2022-08-12T23:01:02.326Z,3.05
2022-08-12T23:03:49.726Z,3.30
2022-08-12T23:06:18.431Z,4.20
2022-08-12T23:08:46.384Z,3.92
2022-08-12T23:11:13.035Z,4.13
2022-08-12T23:13:47.201Z,3.97
2022-08-12T23:16:27.945Z,4.50
2022-08-12T23:19:18.273Z,3.80
2022-08-12T23:22:05.131Z,3.60
2022-08-12T23:24:53.655Z,3.25
2022-08-12T23:27:50.530Z,3.00
2022-08-12T23:30:25.074Z,3.40
2022-08-12T23:33:00.179Z,3.20
2022-08-12T23:35:45.570Z,2.90
2022-08-12T23:38:31.133Z,3.10
2022-08-12T23:41:00.681Z,2.90
2022-08-12T23:43:39.801Z,3.05
2022-08-12T23:46:18.662Z,3.00
2022-08-12T23:48:47.866Z,3.35
2022-08-12T23:51:22.522Z,3.13
2022-08-12T23:54:07.060Z,3.20
2022-08-12T23:56:35.488Z,3.33
2022-08-12T23:59:04.520Z,3.30
